sensor_id;sensor_type;location;lat;lon;timestamp;pressure;altitude;pressure_sealevel;temperature;humidity
34124;BME280;13153;52.316;21.166;2022-10-17T00:01:53;101287.56;;;19.13;60.94
34124;BME280;13153;52.316;21.166;2022-10-17T00:04:19;101295.56;;;19.10;60.84
34124;BME280;13153;52.316;21.166;2022-10-17T00:06:45;101294.66;;;19.07;61.17
34124;BME280;13153;52.316;21.166;2022-10-17T00:09:10;101305.31;;;19.07;61.14
34124;BME280;13153;52.316;21.166;2022-10-17T00:11:36;101303.56;;;19.06;61.26
34124;BME280;13153;52.316;21.166;2022-10-17T00:14:03;101309.75;;;19.06;61.42
34124;BME280;13153;52.316;21.166;2022-10-17T00:16:33;101307.13;;;19.05;61.50
34124;BME280;13153;52.316;21.166;2022-10-17T00:19:02;101310.66;;;19.02;61.30
34124;BME280;13153;52.316;21.166;2022-10-17T00:21:28;101311.50;;;18.98;60.93
34124;BME280;13153;52.316;21.166;2022-10-17T00:23:54;101309.72;;;18.94;61.00
34124;BME280;13153;52.316;21.166;2022-10-17T00:26:21;101309.69;;;18.91;61.17
34124;BME280;13153;52.316;21.166;2022-10-17T00:28:51;101315.88;;;18.86;61.44
34124;BME280;13153;52.316;21.166;2022-10-17T00:31:19;101314.97;;;18.84;61.56
34124;BME280;13153;52.316;21.166;2022-10-17T00:33:46;101302.50;;;18.83;61.85
34124;BME280;13153;52.316;21.166;2022-10-17T00:36:17;101304.28;;;18.80;61.91
34124;BME280;13153;52.316;21.166;2022-10-17T00:38:46;101300.72;;;18.82;62.17
34124;BME280;13153;52.316;21.166;2022-10-17T00:41:16;101308.72;;;18.82;62.17
34124;BME280;13153;52.316;21.166;2022-10-17T00:43:58;101310.50;;;18.83;62.33
34124;BME280;13153;52.316;21.166;2022-10-17T00:46:33;101304.28;;;18.82;62.04
34124;BME280;13153;52.316;21.166;2022-10-17T00:49:06;101312.28;;;18.84;61.75
34124;BME280;13153;52.316;21.166;2022-10-17T00:51:55;101317.63;;;18.84;61.93
34124;BME280;13153;52.316;21.166;2022-10-17T00:54:32;101319.41;;;18.85;61.96
34124;BME280;13153;52.316;21.166;2022-10-17T00:56:59;101320.31;;;18.85;61.73
34124;BME280;13153;52.316;21.166;2022-10-17T00:59:27;101318.53;;;18.86;61.40
34124;BME280;13153;52.316;21.166;2022-10-17T01:02:00;101321.22;;;18.87;61.35
34124;BME280;13153;52.316;21.166;2022-10-17T01:04:27;101317.66;;;18.87;61.14
34124;BME280;13153;52.316;21.166;2022-10-17T01:06:52;101312.31;;;18.85;61.08
34124;BME280;13153;52.316;21.166;2022-10-17T01:09:18;101327.41;;;18.85;61.40
34124;BME280;13153;52.316;21.166;2022-10-17T01:11:52;101329.19;;;18.86;61.27
34124;BME280;13153;52.316;21.166;2022-10-17T01:40:40;101315.66;;;18.61;61.97
34124;BME280;13153;52.316;21.166;2022-10-17T01:46:31;101317.31;;;18.53;61.90
34124;BME280;13153;52.316;21.166;2022-10-17T01:49:02;101312.84;;;18.51;62.14
34124;BME280;13153;52.316;21.166;2022-10-17T01:51:57;101316.44;;;18.48;62.17
34124;BME280;13153;52.316;21.166;2022-10-17T01:54:33;101319.97;;;18.47;62.51
34124;BME280;13153;52.316;21.166;2022-10-17T01:57:09;101307.50;;;18.43;62.41
34124;BME280;13153;52.316;21.166;2022-10-17T01:59:45;101310.16;;;18.43;62.39
34124;BME280;13153;52.316;21.166;2022-10-17T02:02:14;101315.50;;;18.44;62.53
34124;BME280;13153;52.316;21.166;2022-10-17T02:04:42;101313.69;;;18.40;62.45
34124;BME280;13153;52.316;21.166;2022-10-17T02:07:11;101319.88;;;18.38;62.48
34124;BME280;13153;52.316;21.166;2022-10-17T02:09:38;101324.31;;;18.37;62.40
34124;BME280;13153;52.316;21.166;2022-10-17T02:21:03;101311.00;;;18.37;62.33
34124;BME280;13153;52.316;21.166;2022-10-17T02:23:52;101318.97;;;18.36;62.26
34124;BME280;13153;52.316;21.166;2022-10-17T02:26:29;101323.38;;;18.32;62.62
34124;BME280;13153;52.316;21.166;2022-10-17T02:29:14;101322.44;;;18.29;62.54
34124;BME280;13153;52.316;21.166;2022-10-17T02:32:09;101329.53;;;18.27;62.39
34124;BME280;13153;52.316;21.166;2022-10-17T02:34:49;101333.94;;;18.23;62.61
34124;BME280;13153;52.316;21.166;2022-10-17T02:37:22;101342.81;;;18.22;62.42
34124;BME280;13153;52.316;21.166;2022-10-17T02:39:50;101337.41;;;18.14;62.64
34124;BME280;13153;52.316;21.166;2022-10-17T02:42:19;101348.94;;;18.15;62.47
34124;BME280;13153;52.316;21.166;2022-10-17T02:44:46;101346.28;;;18.15;62.56
34124;BME280;13153;52.316;21.166;2022-10-17T02:47:19;101351.59;;;18.15;62.33
34124;BME280;13153;52.316;21.166;2022-10-17T02:49:51;101347.16;;;18.14;62.16
34124;BME280;13153;52.316;21.166;2022-10-17T02:55:17;101358.66;;;18.10;62.06
34124;BME280;13153;52.316;21.166;2022-10-17T02:57:55;101357.72;;;18.06;61.56
34124;BME280;13153;52.316;21.166;2022-10-17T03:00:23;101358.59;;;18.04;61.55
34124;BME280;13153;52.316;21.166;2022-10-17T03:02:52;101370.13;;;18.04;61.93
34124;BME280;13153;52.316;21.166;2022-10-17T03:05:27;101378.13;;;18.06;62.25
34124;BME280;13153;52.316;21.166;2022-10-17T03:07:55;101383.47;;;18.06;61.79
34124;BME280;13153;52.316;21.166;2022-10-17T03:10:21;101386.09;;;18.04;62.08
34124;BME280;13153;52.316;21.166;2022-10-17T03:12:48;101389.63;;;18.02;61.88
34124;BME280;13153;52.316;21.166;2022-10-17T03:15:14;101389.63;;;18.02;61.84
34124;BME280;13153;52.316;21.166;2022-10-17T03:17:40;101394.03;;;18.00;61.66
34124;BME280;13153;52.316;21.166;2022-10-17T03:20:06;101388.72;;;18.00;61.75
34124;BME280;13153;52.316;21.166;2022-10-17T03:22:32;101395.78;;;17.98;61.91
34124;BME280;13153;52.316;21.166;2022-10-17T03:24:58;101400.22;;;17.97;61.94
34124;BME280;13153;52.316;21.166;2022-10-17T03:27:24;101401.94;;;17.94;62.03
34124;BME280;13153;52.316;21.166;2022-10-17T03:29:50;101403.72;;;17.93;62.01
34124;BME280;13153;52.316;21.166;2022-10-17T03:32:16;101406.38;;;17.92;61.95
34124;BME280;13153;52.316;21.166;2022-10-17T03:34:42;101423.22;;;17.92;61.94
34124;BME280;13153;52.316;21.166;2022-10-17T03:37:07;101421.47;;;17.93;62.00
34124;BME280;13153;52.316;21.166;2022-10-17T03:39:33;101417.00;;;17.92;61.93
34124;BME280;13153;52.316;21.166;2022-10-17T03:41:59;101408.13;;;17.91;61.62
34124;BME280;13153;52.316;21.166;2022-10-17T03:44:25;101403.69;;;17.89;61.98
34124;BME280;13153;52.316;21.166;2022-10-17T03:46:50;101412.56;;;17.88;62.01
34124;BME280;13153;52.316;21.166;2022-10-17T03:49:16;101399.22;;;17.86;62.36
34124;BME280;13153;52.316;21.166;2022-10-17T03:51:42;101402.78;;;17.87;62.46
34124;BME280;13153;52.316;21.166;2022-10-17T03:54:07;101393.00;;;17.86;62.64
34124;BME280;13153;52.316;21.166;2022-10-17T03:56:33;101390.34;;;17.87;62.67
34124;BME280;13153;52.316;21.166;2022-10-17T03:58:59;101387.59;;;17.79;62.93
34124;BME280;13153;52.316;21.166;2022-10-17T04:01:25;101400.88;;;17.76;63.06
34124;BME280;13153;52.316;21.166;2022-10-17T04:03:54;101394.59;;;17.73;63.42
34124;BME280;13153;52.316;21.166;2022-10-17T04:06:21;101406.19;;;17.76;63.31
34124;BME280;13153;52.316;21.166;2022-10-17T04:08:48;101415.09;;;17.78;63.37
34124;BME280;13153;52.316;21.166;2022-10-17T04:11:17;101412.50;;;17.85;63.36
34124;BME280;13153;52.316;21.166;2022-10-17T04:13:45;101415.22;;;17.88;63.21
34124;BME280;13153;52.316;21.166;2022-10-17T04:16:16;101411.69;;;17.92;63.13
34124;BME280;13153;52.316;21.166;2022-10-17T04:18:43;101422.34;;;17.92;63.21
34124;BME280;13153;52.316;21.166;2022-10-17T04:21:10;101425.03;;;17.93;63.62
34124;BME280;13153;52.316;21.166;2022-10-17T04:23:36;101425.06;;;17.96;63.24
34124;BME280;13153;52.316;21.166;2022-10-17T04:26:04;101426.84;;;17.96;63.41
34124;BME280;13153;52.316;21.166;2022-10-17T04:28:31;101425.97;;;17.97;63.16
34124;BME280;13153;52.316;21.166;2022-10-17T04:31:06;101433.06;;;17.98;63.28
34124;BME280;13153;52.316;21.166;2022-10-17T04:33:33;101434.88;;;17.99;63.42
34124;BME280;13153;52.316;21.166;2022-10-17T04:36:06;101424.22;;;17.99;63.07
34124;BME280;13153;52.316;21.166;2022-10-17T04:38:33;101428.63;;;17.97;63.05
34124;BME280;13153;52.316;21.166;2022-10-17T04:41:00;101433.03;;;17.95;63.00
34124;BME280;13153;52.316;21.166;2022-10-17T04:43:29;101436.56;;;17.94;63.14
34124;BME280;13153;52.316;21.166;2022-10-17T04:46:00;101441.91;;;17.94;63.37
34124;BME280;13153;52.316;21.166;2022-10-17T04:48:28;101440.16;;;17.96;63.37
34124;BME280;13153;52.316;21.166;2022-10-17T04:51:00;101440.16;;;17.97;63.25
34124;BME280;13153;52.316;21.166;2022-10-17T04:53:27;101438.41;;;17.98;63.27
34124;BME280;13153;52.316;21.166;2022-10-17T04:55:55;101444.66;;;18.01;63.12
34124;BME280;13153;52.316;21.166;2022-10-17T04:58:21;101448.25;;;18.03;63.20
34124;BME280;13153;52.316;21.166;2022-10-17T05:00:46;101450.94;;;18.05;63.13
34124;BME280;13153;52.316;21.166;2022-10-17T05:03:13;101449.13;;;18.04;62.63
34124;BME280;13153;52.316;21.166;2022-10-17T05:05:40;101448.25;;;18.03;62.55
34124;BME280;13153;52.316;21.166;2022-10-17T05:08:09;101457.97;;;18.00;62.43
34124;BME280;13153;52.316;21.166;2022-10-17T05:10:41;101460.59;;;17.98;62.41
34124;BME280;13153;52.316;21.166;2022-10-17T05:13:08;101475.69;;;17.98;62.54
34124;BME280;13153;52.316;21.166;2022-10-17T05:15:35;101471.22;;;17.97;62.38
34124;BME280;13153;52.316;21.166;2022-10-17T05:18:02;101473.03;;;17.98;62.57
34124;BME280;13153;52.316;21.166;2022-10-17T05:20:28;101478.34;;;17.98;62.21
34124;BME280;13153;52.316;21.166;2022-10-17T05:22:54;101483.69;;;17.99;62.65
34124;BME280;13153;52.316;21.166;2022-10-17T05:25:20;101470.41;;;18.01;62.73
34124;BME280;13153;52.316;21.166;2022-10-17T05:27:46;101467.75;;;18.02;62.91
34124;BME280;13153;52.316;21.166;2022-10-17T05:30:12;101471.28;;;18.01;62.67
34124;BME280;13153;52.316;21.166;2022-10-17T05:32:38;101478.41;;;18.01;62.88
34124;BME280;13153;52.316;21.166;2022-10-17T05:35:04;101489.09;;;18.04;62.92
34124;BME280;13153;52.316;21.166;2022-10-17T05:37:31;101492.66;;;18.04;63.16
34124;BME280;13153;52.316;21.166;2022-10-17T05:39:57;101495.38;;;18.09;62.78
34124;BME280;13153;52.316;21.166;2022-10-17T05:42:23;101488.31;;;18.12;62.93
34124;BME280;13153;52.316;21.166;2022-10-17T05:44:49;101501.72;;;18.19;62.83
34124;BME280;13153;52.316;21.166;2022-10-17T05:47:15;101507.13;;;18.23;62.66
34124;BME280;13153;52.316;21.166;2022-10-17T05:49:41;101510.75;;;18.30;62.45
34124;BME280;13153;52.316;21.166;2022-10-17T05:52:07;101514.47;;;18.41;62.31
34124;BME280;13153;52.316;21.166;2022-10-17T05:54:33;101517.22;;;18.52;62.14
34124;BME280;13153;52.316;21.166;2022-10-17T05:56:59;101527.28;;;18.71;62.15
34124;BME280;13153;52.316;21.166;2022-10-17T05:59:25;101531.16;;;19.00;62.57
34124;BME280;13153;52.316;21.166;2022-10-17T06:01:53;101531.44;;;19.31;62.17
34124;BME280;13153;52.316;21.166;2022-10-17T06:04:19;101536.91;;;19.44;60.49
34124;BME280;13153;52.316;21.166;2022-10-17T06:06:46;101534.34;;;19.54;59.81
34124;BME280;13153;52.316;21.166;2022-10-17T06:09:12;101525.38;;;19.50;59.72
34124;BME280;13153;52.316;21.166;2022-10-17T06:11:37;101524.41;;;19.40;59.44
34124;BME280;13153;52.316;21.166;2022-10-17T06:14:04;101523.50;;;19.38;59.60
34124;BME280;13153;52.316;21.166;2022-10-17T06:16:29;101521.75;;;19.43;59.53
34124;BME280;13153;52.316;21.166;2022-10-17T06:18:55;101525.38;;;19.49;59.61
34124;BME280;13153;52.316;21.166;2022-10-17T06:21:25;101519.31;;;19.69;59.50
34124;BME280;13153;52.316;21.166;2022-10-17T06:23:52;101522.09;;;19.85;58.78
34124;BME280;13153;52.316;21.166;2022-10-17T06:26:18;101523.06;;;19.94;58.94
34124;BME280;13153;52.316;21.166;2022-10-17T06:28:44;101521.41;;;20.15;58.34
34124;BME280;13153;52.316;21.166;2022-10-17T06:31:14;101527.78;;;20.44;58.17
34124;BME280;13153;52.316;21.166;2022-10-17T06:33:40;101535.03;;;20.69;57.33
34124;BME280;13153;52.316;21.166;2022-10-17T06:36:10;101533.31;;;20.97;56.95
34124;BME280;13153;52.316;21.166;2022-10-17T06:38:37;101534.28;;;21.24;56.30
34124;BME280;13153;52.316;21.166;2022-10-17T06:43:36;101548.56;;;21.67;54.87
34124;BME280;13153;52.316;21.166;2022-10-17T06:46:03;101544.09;;;21.70;54.86
34124;BME280;13153;52.316;21.166;2022-10-17T06:48:29;101552.13;;;21.87;54.36
34124;BME280;13153;52.316;21.166;2022-10-17T06:51:00;101549.44;;;21.92;53.93
34124;BME280;13153;52.316;21.166;2022-10-17T06:53:31;101561.00;;;22.18;54.04
34124;BME280;13153;52.316;21.166;2022-10-17T06:55:57;101563.63;;;22.50;53.57
34124;BME280;13153;52.316;21.166;2022-10-17T06:58:34;101566.19;;;22.73;52.81
34124;BME280;13153;52.316;21.166;2022-10-17T07:01:02;101575.97;;;22.89;52.60
34124;BME280;13153;52.316;21.166;2022-10-17T07:03:29;101568.72;;;23.10;52.49
34124;BME280;13153;52.316;21.166;2022-10-17T07:05:56;101564.13;;;23.24;52.02
34124;BME280;13153;52.316;21.166;2022-10-17T07:08:22;101565.84;;;23.32;51.08
34124;BME280;13153;52.316;21.166;2022-10-17T07:10:49;101558.69;;;23.31;50.93
34124;BME280;13153;52.316;21.166;2022-10-17T07:13:16;101559.56;;;23.35;50.79
34124;BME280;13153;52.316;21.166;2022-10-17T07:15:42;101556.88;;;23.35;51.30
34124;BME280;13153;52.316;21.166;2022-10-17T07:18:08;101558.66;;;23.39;50.61
34124;BME280;13153;52.316;21.166;2022-10-17T07:20:35;101558.66;;;23.36;50.95
34124;BME280;13153;52.316;21.166;2022-10-17T07:23:01;101564.88;;;23.44;50.97
34124;BME280;13153;52.316;21.166;2022-10-17T07:25:27;101570.19;;;23.50;50.76
34124;BME280;13153;52.316;21.166;2022-10-17T07:27:53;101567.50;;;23.56;50.97
34124;BME280;13153;52.316;21.166;2022-10-17T07:30:20;101564.75;;;23.64;51.12
34124;BME280;13153;52.316;21.166;2022-10-17T07:32:46;101563.75;;;23.71;50.72
34124;BME280;13153;52.316;21.166;2022-10-17T07:35:12;101557.59;;;23.64;50.18
34124;BME280;13153;52.316;21.166;2022-10-17T07:37:39;101566.56;;;23.63;50.88
34124;BME280;13153;52.316;21.166;2022-10-17T07:40:07;101572.81;;;23.65;50.60
34124;BME280;13153;52.316;21.166;2022-10-17T07:42:36;101581.69;;;23.69;50.20
34124;BME280;13153;52.316;21.166;2022-10-17T07:45:03;101594.22;;;23.70;50.29
34124;BME280;13153;52.316;21.166;2022-10-17T07:47:29;101591.56;;;23.68;50.31
34124;BME280;13153;52.316;21.166;2022-10-17T07:49:56;101600.47;;;23.74;50.70
34124;BME280;13153;52.316;21.166;2022-10-17T07:52:22;101598.69;;;23.74;49.80
34124;BME280;13153;52.316;21.166;2022-10-17T07:54:48;101600.47;;;23.77;50.09
34124;BME280;13153;52.316;21.166;2022-10-17T07:57:14;101605.72;;;23.90;50.01
34124;BME280;13153;52.316;21.166;2022-10-17T07:59:40;101604.72;;;24.03;49.55
34124;BME280;13153;52.316;21.166;2022-10-17T08:02:30;101616.34;;;24.04;49.33
34124;BME280;13153;52.316;21.166;2022-10-17T08:04:54;101611.91;;;24.00;49.25
34124;BME280;13153;52.316;21.166;2022-10-17T08:07:20;101611.09;;;23.92;49.55
34124;BME280;13153;52.316;21.166;2022-10-17T08:09:46;101612.97;;;23.81;49.69
34124;BME280;13153;52.316;21.166;2022-10-17T08:12:13;101616.59;;;23.77;50.12
34124;BME280;13153;52.316;21.166;2022-10-17T08:14:41;101621.09;;;23.71;49.99
34124;BME280;13153;52.316;21.166;2022-10-17T08:17:07;101606.03;;;23.55;49.76
34124;BME280;13153;52.316;21.166;2022-10-17T08:19:33;101615.94;;;23.41;50.46
34124;BME280;13153;52.316;21.166;2022-10-17T08:22:02;101614.22;;;23.31;51.01
34124;BME280;13153;52.316;21.166;2022-10-17T08:24:28;101614.22;;;23.26;50.62
34124;BME280;13153;52.316;21.166;2022-10-17T08:26:54;101611.50;;;23.32;51.27
34124;BME280;13153;52.316;21.166;2022-10-17T08:29:21;101602.44;;;23.56;51.41
34124;BME280;13153;52.316;21.166;2022-10-17T08:31:47;101606.78;;;23.71;50.50
34124;BME280;13153;52.316;21.166;2022-10-17T08:34:13;101605.78;;;23.83;50.32
34124;BME280;13153;52.316;21.166;2022-10-17T08:36:40;101599.47;;;23.87;49.75
34124;BME280;13153;52.316;21.166;2022-10-17T08:39:06;101594.09;;;23.85;49.99
34124;BME280;13153;52.316;21.166;2022-10-17T08:44:45;101607.25;;;24.17;50.30
34124;BME280;13153;52.316;21.166;2022-10-17T08:47:32;101600.72;;;24.44;49.31
34124;BME280;13153;52.316;21.166;2022-10-17T08:50:04;101602.25;;;24.66;48.35
34124;BME280;13153;52.316;21.166;2022-10-17T08:52:47;101603.91;;;24.78;47.47
34124;BME280;13153;52.316;21.166;2022-10-17T08:57:55;101599.47;;;24.74;47.32
34124;BME280;13153;52.316;21.166;2022-10-17T09:00:22;101596.81;;;24.71;47.33
34124;BME280;13153;52.316;21.166;2022-10-17T09:03:34;101596.84;;;24.69;47.32
34124;BME280;13153;52.316;21.166;2022-10-17T09:06:11;101592.41;;;24.64;48.06
34124;BME280;13153;52.316;21.166;2022-10-17T09:11:55;101595.06;;;24.68;47.60
34124;BME280;13153;52.316;21.166;2022-10-17T09:17:23;101584.38;;;24.59;47.67
34124;BME280;13153;52.316;21.166;2022-10-17T09:20:40;101582.47;;;24.71;47.67
34124;BME280;13153;52.316;21.166;2022-10-17T09:23:29;101585.25;;;24.63;47.37
34124;BME280;13153;52.316;21.166;2022-10-17T09:25:59;101591.53;;;24.62;47.67
34124;BME280;13153;52.316;21.166;2022-10-17T09:28:38;101590.78;;;24.51;47.70
34124;BME280;13153;52.316;21.166;2022-10-17T09:31:15;101585.38;;;24.52;47.96
34124;BME280;13153;52.316;21.166;2022-10-17T09:33:46;101586.13;;;24.63;48.04
34124;BME280;13153;52.316;21.166;2022-10-17T09:36:31;101587.88;;;24.67;47.38
34124;BME280;13153;52.316;21.166;2022-10-17T09:39:02;101587.88;;;24.69;48.46
34124;BME280;13153;52.316;21.166;2022-10-17T09:41:40;101588.81;;;24.65;47.58
34124;BME280;13153;52.316;21.166;2022-10-17T09:44:24;101588.78;;;24.66;47.72
34124;BME280;13153;52.316;21.166;2022-10-17T09:49:40;101588.88;;;24.59;47.35
34124;BME280;13153;52.316;21.166;2022-10-17T09:54:52;101584.44;;;24.55;48.57
34124;BME280;13153;52.316;21.166;2022-10-17T09:57:20;101584.41;;;24.58;49.07
34124;BME280;13153;52.316;21.166;2022-10-17T09:59:55;101580.72;;;24.65;48.49
34124;BME280;13153;52.316;21.166;2022-10-17T10:02:24;101579.78;;;24.69;48.47
34124;BME280;13153;52.316;21.166;2022-10-17T10:05:00;101576.19;;;24.70;48.13
34124;BME280;13153;52.316;21.166;2022-10-17T10:07:35;101575.34;;;24.65;48.24
34124;BME280;13153;52.316;21.166;2022-10-17T10:10:04;101571.84;;;24.58;47.93
34124;BME280;13153;52.316;21.166;2022-10-17T10:12:35;101564.72;;;24.54;47.96
34124;BME280;13153;52.316;21.166;2022-10-17T10:15:35;101566.66;;;24.40;48.38
34124;BME280;13153;52.316;21.166;2022-10-17T10:18:02;101566.72;;;24.37;48.59
34124;BME280;13153;52.316;21.166;2022-10-17T10:20:32;101567.53;;;24.44;48.83
34124;BME280;13153;52.316;21.166;2022-10-17T10:23:17;101565.75;;;24.41;48.36
34124;BME280;13153;52.316;21.166;2022-10-17T10:25:58;101569.25;;;24.51;48.94
34124;BME280;13153;52.316;21.166;2022-10-17T10:28:29;101565.63;;;24.52;48.32
34124;BME280;13153;52.316;21.166;2022-10-17T10:30:59;101566.53;;;24.52;48.39
34124;BME280;13153;52.316;21.166;2022-10-17T10:33:29;101562.84;;;24.59;48.47
34124;BME280;13153;52.316;21.166;2022-10-17T10:36:04;101573.66;;;24.56;48.27
34124;BME280;13153;52.316;21.166;2022-10-17T10:38:33;101569.25;;;24.51;48.31
34124;BME280;13153;52.316;21.166;2022-10-17T10:41:05;101572.81;;;24.53;48.79
34124;BME280;13153;52.316;21.166;2022-10-17T10:43:47;101572.78;;;24.56;47.66
34124;BME280;13153;52.316;21.166;2022-10-17T10:46:25;101567.38;;;24.56;47.81
34124;BME280;13153;52.316;21.166;2022-10-17T10:49:00;101560.22;;;24.55;48.07
34124;BME280;13153;52.316;21.166;2022-10-17T10:56:42;101553.13;;;24.49;48.19
34124;BME280;13153;52.316;21.166;2022-10-17T10:59:23;101554.88;;;24.52;47.82
34124;BME280;13153;52.316;21.166;2022-10-17T11:04:55;101551.97;;;24.70;47.77
34124;BME280;13153;52.316;21.166;2022-10-17T11:07:30;101559.13;;;24.71;47.34
34124;BME280;13153;52.316;21.166;2022-10-17T11:12:51;101556.41;;;24.74;47.47
34124;BME280;13153;52.316;21.166;2022-10-17T11:16:01;101550.97;;;24.77;47.88
34124;BME280;13153;52.316;21.166;2022-10-17T11:18:54;101544.66;;;24.80;47.62
34124;BME280;13153;52.316;21.166;2022-10-17T11:22:29;101548.13;;;24.86;46.74
34124;BME280;13153;52.316;21.166;2022-10-17T11:24:58;101541.09;;;24.76;46.06
34124;BME280;13153;52.316;21.166;2022-10-17T11:27:28;101550.97;;;24.77;47.01
34124;BME280;13153;52.316;21.166;2022-10-17T11:29:55;101543.72;;;24.82;46.72
34124;BME280;13153;52.316;21.166;2022-10-17T11:32:58;101556.28;;;24.83;46.56
34124;BME280;13153;52.316;21.166;2022-10-17T11:35:29;101547.41;;;24.75;46.11
34124;BME280;13153;52.316;21.166;2022-10-17T11:40:40;101555.47;;;24.75;46.54
34124;BME280;13153;52.316;21.166;2022-10-17T11:43:33;101552.81;;;24.72;46.52
34124;BME280;13153;52.316;21.166;2022-10-17T11:46:19;101546.56;;;24.72;46.34
34124;BME280;13153;52.316;21.166;2022-10-17T11:51:44;101548.38;;;24.69;46.57
34124;BME280;13153;52.316;21.166;2022-10-17T11:54:30;101556.38;;;24.76;46.33
34124;BME280;13153;52.316;21.166;2022-10-17T12:00:37;101551.72;;;24.85;46.26
34124;BME280;13153;52.316;21.166;2022-10-17T12:07:03;101549.03;;;24.85;45.55
34124;BME280;13153;52.316;21.166;2022-10-17T12:12:02;101551.69;;;24.87;46.07
34124;BME280;13153;52.316;21.166;2022-10-17T12:14:43;101540.00;;;24.89;45.58
34124;BME280;13153;52.316;21.166;2022-10-17T12:17:43;101534.59;;;24.91;45.29
34124;BME280;13153;52.316;21.166;2022-10-17T12:22:54;101535.44;;;24.97;45.43
34124;BME280;13153;52.316;21.166;2022-10-17T12:25:31;101539.09;;;24.90;45.41
34124;BME280;13153;52.316;21.166;2022-10-17T12:28:28;101539.16;;;24.84;45.87
34124;BME280;13153;52.316;21.166;2022-10-17T12:31:02;101534.66;;;24.86;45.78
34124;BME280;13153;52.316;21.166;2022-10-17T12:47:36;101517.59;;;24.86;46.71
34124;BME280;13153;52.316;21.166;2022-10-17T12:53:14;101518.66;;;24.77;46.26
34124;BME280;13153;52.316;21.166;2022-10-17T12:55:43;101511.44;;;24.79;45.75
34124;BME280;13153;52.316;21.166;2022-10-17T12:58:15;101515.19;;;24.67;45.81
34124;BME280;13153;52.316;21.166;2022-10-17T13:00:59;101510.75;;;24.65;46.05
34124;BME280;13153;52.316;21.166;2022-10-17T13:03:32;101508.91;;;24.68;46.70
34124;BME280;13153;52.316;21.166;2022-10-17T13:06:05;101503.56;;;24.65;46.44
34124;BME280;13153;52.316;21.166;2022-10-17T13:08:46;101497.25;;;24.68;46.54
34124;BME280;13153;52.316;21.166;2022-10-17T13:11:13;101508.91;;;24.68;46.22
34124;BME280;13153;52.316;21.166;2022-10-17T13:13:47;101511.69;;;24.62;46.54
34124;BME280;13153;52.316;21.166;2022-10-17T13:16:31;101505.25;;;24.74;46.14
34124;BME280;13153;52.316;21.166;2022-10-17T13:19:00;101508.78;;;24.78;46.62
34124;BME280;13153;52.316;21.166;2022-10-17T13:21:27;101497.97;;;24.81;46.00
34124;BME280;13153;52.316;21.166;2022-10-17T13:23:54;101506.97;;;24.80;46.24
34124;BME280;13153;52.316;21.166;2022-10-17T13:26:29;101509.63;;;24.81;46.26
34124;BME280;13153;52.316;21.166;2022-10-17T13:29:10;101499.72;;;24.83;46.18
34124;BME280;13153;52.316;21.166;2022-10-17T13:31:41;101496.09;;;24.84;45.80
34124;BME280;13153;52.316;21.166;2022-10-17T13:34:19;101498.78;;;24.84;45.90
34124;BME280;13153;52.316;21.166;2022-10-17T13:36:49;101495.19;;;24.85;45.90
34124;BME280;13153;52.316;21.166;2022-10-17T13:39:32;101495.22;;;24.84;45.79
34124;BME280;13153;52.316;21.166;2022-10-17T13:41:58;101488.00;;;24.86;45.43
34124;BME280;13153;52.316;21.166;2022-10-17T13:44:27;101493.56;;;24.74;45.77
34124;BME280;13153;52.316;21.166;2022-10-17T13:46:56;101480.13;;;24.74;45.97
34124;BME280;13153;52.316;21.166;2022-10-17T13:49:32;101486.47;;;24.68;45.81
34124;BME280;13153;52.316;21.166;2022-10-17T13:52:02;101491.81;;;24.71;46.17
34124;BME280;13153;52.316;21.166;2022-10-17T13:54:39;101484.63;;;24.73;45.83
34124;BME280;13153;52.316;21.166;2022-10-17T13:57:35;101489.16;;;24.68;46.02
34124;BME280;13153;52.316;21.166;2022-10-17T14:00:05;101482.91;;;24.67;46.03
34124;BME280;13153;52.316;21.166;2022-10-17T14:02:33;101482.94;;;24.64;46.23
34124;BME280;13153;52.316;21.166;2022-10-17T14:05:14;101479.41;;;24.61;46.32
34124;BME280;13153;52.316;21.166;2022-10-17T14:07:58;101477.69;;;24.55;46.62
34124;BME280;13153;52.316;21.166;2022-10-17T14:10:35;101480.38;;;24.54;46.53
34124;BME280;13153;52.316;21.166;2022-10-17T14:13:05;101473.22;;;24.54;46.55
34124;BME280;13153;52.316;21.166;2022-10-17T14:15:35;101470.50;;;24.54;46.71
34124;BME280;13153;52.316;21.166;2022-10-17T14:18:07;101474.13;;;24.52;46.81
34124;BME280;13153;52.316;21.166;2022-10-17T14:20:38;101473.28;;;24.48;46.90
34124;BME280;13153;52.316;21.166;2022-10-17T14:26:23;101464.34;;;24.46;47.08
34124;BME280;13153;52.316;21.166;2022-10-17T14:29:05;101466.16;;;24.44;46.94
34124;BME280;13153;52.316;21.166;2022-10-17T14:31:34;101466.19;;;24.41;47.43
34124;BME280;13153;52.316;21.166;2022-10-17T14:34:03;101462.66;;;24.38;47.64
34124;BME280;13153;52.316;21.166;2022-10-17T14:36:39;101459.97;;;24.38;47.80
34124;BME280;13153;52.316;21.166;2022-10-17T14:39:18;101459.97;;;24.38;47.70
34124;BME280;13153;52.316;21.166;2022-10-17T14:41:46;101448.34;;;24.35;47.85
34124;BME280;13153;52.316;21.166;2022-10-17T14:44:23;101451.97;;;24.33;47.99
34124;BME280;13153;52.316;21.166;2022-10-17T14:47:03;101453.75;;;24.32;48.13
34124;BME280;13153;52.316;21.166;2022-10-17T14:49:38;101452.88;;;24.32;48.19
34124;BME280;13153;52.316;21.166;2022-10-17T14:54:47;101455.66;;;24.26;48.15
34124;BME280;13153;52.316;21.166;2022-10-17T14:59:51;101460.19;;;24.19;48.49